Flight Track Log - Related Links

Times and Time Zones

All times are in EDT time to prevent confusion due to time zone crossing. See the KAP26 flight status page for this flight to view local times or setup timezone preferences in your user account.

Time Position Orientation Groundspeed Altitude Reporting Facility
EDT Latitude Longitude Course Direction KTS MPH feet Rate Location/Type
Mon 07:12:08 PM 38.7500 -90.3167 38° Northeast 137 158 1,500  Level Gateway (St. Louis) TRACON
Mon 07:12:56 PM 38.7667 -90.3000 38° Northeast 137 158 2,200 722 Climbing Gateway (St. Louis) TRACON
Mon 07:13:56 PM 38.8167 -90.3167 345° North 158 182 2,800 737 Climbing Gateway (St. Louis) TRACON
Mon 07:14:50 PM 38.8500 -90.3500 322° Northwest 159 183 3,600 750 Climbing Gateway (St. Louis) TRACON
Mon 07:15:08 PM 38.8531 -90.3542 313° West 161 185 3,700 450 Climbing Kansas City Center
Mon 07:16:10 PM 38.8758 -90.4028 301° West 161 185 4,200 532 Climbing Kansas City Center
Mon 07:17:12 PM 38.8997 -90.4436 307° West 154 177 4,800 581 Climbing Kansas City Center
Mon 07:18:14 PM 38.9261 -90.4878 308° West 140 161 5,400 581 Climbing Kansas City Center
Mon 07:19:16 PM 38.9467 -90.5233 307° West 129 148 6,000 290 Climbing Kansas City Center
Mon 07:20:18 PM 38.9692 -90.5617 307° West 131 151 6,000  Level Kansas City Center
Mon 07:21:20 PM 38.9953 -90.6089 305° West 155 178 6,000  Level Kansas City Center
Mon 07:22:22 PM 39.0189 -90.6600 301° West 164 189 6,000  Level Kansas City Center
Mon 07:23:24 PM 39.0511 -90.7047 313° West 169 194 6,000  Level Kansas City Center
Mon 07:24:26 PM 39.0889 -90.7583 312° West 168 193 6,000  Level Kansas City Center
Mon 07:25:29 PM 39.1186 -90.8033 310° West 168 193 6,000  Level Kansas City Center
Mon 07:26:31 PM 39.1489 -90.8514 309° West 170 196 6,000  Level Kansas City Center
Mon 07:27:33 PM 39.1769 -90.9011 306° West 172 198 6,000  Level Kansas City Center
Mon 07:28:35 PM 39.2047 -90.9506 306° West 172 198 6,000  Level Kansas City Center
Mon 07:29:37 PM 39.2333 -91.0011 306° West 173 199 6,000  Level Kansas City Center
Mon 07:30:39 PM 39.2686 -91.0622 307° West 175 201 6,000  Level Kansas City Center
Mon 07:31:41 PM 39.2969 -91.1119 306° West 175 201 6,000  Level Kansas City Center
Mon 07:32:43 PM 39.3256 -91.1625 306° West 174 200 6,000  Level Kansas City Center
Mon 07:33:45 PM 39.3525 -91.2125 305° West 171 197 6,000  Level Kansas City Center
Mon 07:34:47 PM 39.3803 -91.2617 306° West 169 194 6,000  Level Kansas City Center
Mon 07:35:49 PM 39.4083 -91.3089 308° West 168 193 6,000  Level Kansas City Center
Mon 07:36:51 PM 39.4414 -91.3664 307° West 167 192 6,000  Level Kansas City Center
Mon 07:37:53 PM 39.4683 -91.4150 306° West 166 191 6,000  Level Kansas City Center
Mon 07:38:54 PM 39.4942 -91.4639 304° West 165 190 6,000  Level Kansas City Center
Mon 07:39:56 PM 39.5194 -91.5092 306° West 165 190 6,000  Level Kansas City Center
Mon 07:40:58 PM 39.5508 -91.5681 305° West 166 191 6,000  Level Kansas City Center
Mon 07:42:00 PM 39.5783 -91.6147 307° West 165 190 6,000  Level Kansas City Center
Mon 07:43:02 PM 39.6069 -91.6603 309° West 164 189 6,000  Level Kansas City Center
Mon 07:44:04 PM 39.6319 -91.7100 303° West 166 191 6,000  Level Kansas City Center
Mon 07:45:06 PM 39.6600 -91.7572 308° West 166 191 6,000  Level Kansas City Center
Mon 07:46:08 PM 39.6914 -91.8147 305° West 164 189 6,000  Level Kansas City Center
Mon 07:47:10 PM 39.7175 -91.8625 305° West 164 189 6,000  Level Kansas City Center
Mon 07:48:12 PM 39.7436 -91.9100 306° West 164 189 6,000  Level Kansas City Center
Mon 07:49:14 PM 39.7700 -91.9564 307° West 162 186 6,000  Level Kansas City Center
Mon 07:50:16 PM 39.7958 -92.0039 305° West 162 186 6,000 -48 Level Kansas City Center
Mon 07:51:18 PM 39.8281 -92.0586 307° West 161 185 5,900 -290 Descending Kansas City Center
Mon 07:52:20 PM 39.8556 -92.1094 305° West 170 196 5,400 -484 Descending Kansas City Center
Mon 07:53:22 PM 39.8858 -92.1639 306° West 180 207 4,900 -484 Descending Kansas City Center
Mon 07:54:24 PM 39.9150 -92.2181 305° West 183 211 4,400 -484 Descending Kansas City Center

Login

Don't have an account? Register now (free) for customized features, flight alerts, and more!